createdAt,value
2018-06-04T00:00:21.587Z,89.60
2018-06-04T00:02:50.727Z,89.50
2018-06-04T00:05:20.090Z,89.30
2018-06-04T00:07:48.953Z,89.60
2018-06-04T00:10:18.131Z,89.70
2018-06-04T00:12:47.045Z,89.80
2018-06-04T00:15:15.851Z,90.10
2018-06-04T00:17:44.612Z,90.10
2018-06-04T00:20:13.485Z,89.80
2018-06-04T00:22:42.292Z,89.90
2018-06-04T00:25:11.023Z,90.40
2018-06-04T00:27:40.170Z,90.20
2018-06-04T00:32:37.545Z,89.40
2018-06-04T00:35:06.601Z,90.00
2018-06-04T00:37:35.427Z,90.00
2018-06-04T00:40:04.543Z,90.20
2018-06-04T00:42:33.320Z,89.50
2018-06-04T00:45:02.816Z,89.60
2018-06-04T00:47:32.019Z,90.60
2018-06-04T00:50:01.153Z,91.60
2018-06-04T00:52:29.987Z,91.70
2018-06-04T00:54:58.876Z,91.80
2018-06-04T00:57:27.711Z,92.20
2018-06-04T00:59:56.605Z,92.70
2018-06-04T01:02:25.567Z,92.40
2018-06-04T01:04:54.449Z,92.50
2018-06-04T01:07:23.293Z,93.10
2018-06-04T01:09:52.126Z,93.30
2018-06-04T01:12:21.550Z,93.80
2018-06-04T01:14:50.663Z,93.70
2018-06-04T01:17:19.813Z,93.30
2018-06-04T01:19:48.871Z,93.50
2018-06-04T01:22:17.649Z,93.40
2018-06-04T01:24:46.755Z,93.50
2018-06-04T01:27:15.523Z,93.80
2018-06-04T01:29:44.307Z,94.20
2018-06-04T01:32:13.132Z,94.30
2018-06-04T01:34:42.137Z,94.70
2018-06-04T01:37:11.253Z,94.80
2018-06-04T01:39:40.041Z,95.90
2018-06-04T01:42:09.031Z,94.70
2018-06-04T01:44:38.363Z,94.80
2018-06-04T01:47:07.827Z,95.80
2018-06-04T01:49:36.716Z,96.20
2018-06-04T01:52:05.504Z,96.80
2018-06-04T01:54:34.556Z,96.80
2018-06-04T01:57:03.930Z,96.40
2018-06-04T01:59:32.717Z,96.60
2018-06-04T02:02:01.903Z,97.00
2018-06-04T02:04:31.174Z,97.10
2018-06-04T02:07:00.273Z,97.30
2018-06-04T02:09:29.001Z,97.30
2018-06-04T02:11:57.773Z,97.00
2018-06-04T02:14:26.635Z,97.50
2018-06-04T02:16:56.119Z,97.60
2018-06-04T02:19:24.861Z,97.50
2018-06-04T02:21:53.653Z,97.60
2018-06-04T02:24:22.433Z,97.80
2018-06-04T02:26:51.176Z,97.80
2018-06-04T02:31:48.423Z,98.10
2018-06-04T02:34:17.490Z,98.60
2018-06-04T02:36:46.654Z,98.70
2018-06-04T02:39:15.501Z,98.80
2018-06-04T02:41:44.336Z,98.90
2018-06-04T02:44:13.210Z,99.40
2018-06-04T02:46:42.084Z,99.10
2018-06-04T02:49:10.948Z,99.20
2018-06-04T02:51:39.728Z,99.10
2018-06-04T02:54:08.501Z,99.40
2018-06-04T02:56:37.364Z,99.20
2018-06-04T02:59:06.793Z,99.10
2018-06-04T03:01:35.649Z,99.00
2018-06-04T03:04:04.744Z,99.40
2018-06-04T03:06:33.490Z,98.80
2018-06-04T03:09:02.317Z,99.10
2018-06-04T03:11:31.030Z,99.40
2018-06-04T03:13:59.801Z,99.00
2018-06-04T03:16:28.916Z,98.90
2018-06-04T03:18:58.091Z,98.70
2018-06-04T03:21:26.869Z,98.50
2018-06-04T03:23:55.929Z,98.30
2018-06-04T03:26:24.708Z,97.60
2018-06-04T03:28:53.552Z,97.00
2018-06-04T03:31:23.106Z,96.60
2018-06-04T03:33:51.960Z,96.10
2018-06-04T03:36:20.929Z,96.00
2018-06-04T03:38:50.131Z,95.20
2018-06-04T03:41:19.428Z,92.80
2018-06-04T03:43:48.235Z,88.90
2018-06-04T03:46:17.391Z,86.60
2018-06-04T03:48:46.496Z,87.20
2018-06-04T03:51:15.276Z,88.00
2018-06-04T03:53:44.100Z,88.00
2018-06-04T03:56:12.856Z,87.20
2018-06-04T03:58:41.639Z,87.00
2018-06-04T04:01:10.712Z,85.80
2018-06-04T04:03:39.480Z,85.30
2018-06-04T04:06:08.622Z,84.60
2018-06-04T04:08:37.475Z,83.20
2018-06-04T04:11:06.824Z,83.40
2018-06-04T04:13:35.652Z,82.70
2018-06-04T04:16:04.846Z,82.00
2018-06-04T04:18:33.779Z,80.40
2018-06-04T04:21:02.980Z,79.70
2018-06-04T04:23:31.851Z,78.30
2018-06-04T04:26:00.761Z,76.90
2018-06-04T04:28:29.822Z,75.40
2018-06-04T04:30:58.785Z,73.50
2018-06-04T04:33:28.773Z,70.00
2018-06-04T04:35:58.030Z,65.70
2018-06-04T04:38:26.835Z,62.80
2018-06-04T04:40:55.599Z,60.70
2018-06-04T04:43:24.376Z,59.50
2018-06-04T04:45:53.144Z,58.70
2018-06-04T04:48:21.962Z,56.90
2018-06-04T04:50:51.082Z,55.90
2018-06-04T04:53:20.462Z,53.70
2018-06-04T04:55:49.828Z,51.90
2018-06-04T05:00:48.255Z,49.80
2018-06-04T05:03:17.652Z,48.80
2018-06-04T05:05:47.376Z,47.70
2018-06-04T05:08:16.731Z,47.40
2018-06-04T05:10:46.437Z,46.40
2018-06-04T05:13:15.796Z,46.00
2018-06-04T05:15:45.271Z,46.40
2018-06-04T05:18:14.683Z,45.80
2018-06-04T05:20:44.451Z,44.40
2018-06-04T05:23:13.929Z,43.50
2018-06-04T05:25:43.706Z,43.10
2018-06-04T05:28:13.241Z,41.80
2018-06-04T05:30:43.318Z,41.80
2018-06-04T05:33:12.780Z,40.80
2018-06-04T05:35:42.284Z,40.20
2018-06-04T05:38:13.884Z,40.80
2018-06-04T05:40:43.776Z,41.20
2018-06-04T05:43:13.378Z,39.40
2018-06-04T05:45:43.232Z,39.60
2018-06-04T05:48:13.336Z,38.90
2018-06-04T05:50:43.300Z,37.40
2018-06-04T05:53:13.590Z,36.70
2018-06-04T05:55:43.249Z,36.40
2018-06-04T05:58:13.154Z,36.80
2018-06-04T06:00:42.687Z,36.60
2018-06-04T06:03:12.173Z,36.10
2018-06-04T06:05:41.802Z,35.00
2018-06-04T06:08:11.621Z,35.20
2018-06-04T06:10:41.326Z,34.90
2018-06-04T06:13:11.357Z,34.90
2018-06-04T06:15:43.040Z,34.60
2018-06-04T06:18:13.553Z,34.90
2018-06-04T06:20:43.000Z,34.70
2018-06-04T06:23:12.103Z,35.50
2018-06-04T06:25:41.942Z,35.00
2018-06-04T06:28:11.644Z,35.40
2018-06-04T06:30:40.750Z,34.40
2018-06-04T06:33:09.788Z,33.80
2018-06-04T06:35:38.831Z,33.20
2018-06-04T06:38:07.861Z,33.80
2018-06-04T06:40:37.342Z,33.70
2018-06-04T06:43:06.511Z,33.20
2018-06-04T06:45:35.602Z,32.60
2018-06-04T06:48:05.180Z,32.90
2018-06-04T06:50:34.884Z,32.50
2018-06-04T06:53:03.980Z,32.40
2018-06-04T06:55:33.149Z,31.40
2018-06-04T06:58:02.209Z,31.10
2018-06-04T07:00:31.415Z,32.10
2018-06-04T07:03:00.701Z,32.50
2018-06-04T07:05:30.322Z,31.30
2018-06-04T07:07:59.737Z,30.40
2018-06-04T07:10:29.067Z,30.00
2018-06-04T07:12:58.401Z,30.40
2018-06-04T07:15:27.755Z,30.70
2018-06-04T07:17:57.370Z,30.30
2018-06-04T07:20:26.843Z,29.80
2018-06-04T07:22:56.182Z,30.80
2018-06-04T07:25:25.793Z,30.30
2018-06-04T07:27:55.359Z,29.90
2018-06-04T07:32:45.888Z,29.30
2018-06-04T07:35:15.648Z,28.90
2018-06-04T07:37:45.031Z,28.70
2018-06-04T07:40:14.437Z,28.70
2018-06-04T07:42:43.866Z,28.40
2018-06-04T07:45:12.970Z,29.50
2018-06-04T07:47:42.080Z,28.90
2018-06-04T07:50:16.009Z,27.90
2018-06-04T07:52:45.447Z,28.00
2018-06-04T07:55:15.223Z,27.00
2018-06-04T07:57:44.389Z,28.40
2018-06-04T08:00:13.471Z,27.60
2018-06-04T08:02:42.658Z,27.90
2018-06-04T08:05:12.125Z,27.40
2018-06-04T08:07:41.627Z,27.40
2018-06-04T08:10:11.151Z,27.50
2018-06-04T08:12:40.513Z,27.40
2018-06-04T08:15:09.913Z,28.20
2018-06-04T08:17:39.608Z,30.60
2018-06-04T08:20:09.168Z,29.80
2018-06-04T08:22:38.399Z,28.30
2018-06-04T08:25:08.321Z,30.70
2018-06-04T08:27:38.061Z,35.50
2018-06-04T08:30:07.596Z,37.90
2018-06-04T08:32:37.259Z,37.40
2018-06-04T08:35:07.020Z,39.10
2018-06-04T08:37:37.105Z,42.20
2018-06-04T08:40:07.530Z,41.60
2018-06-04T08:42:37.128Z,39.90
2018-06-04T08:45:06.970Z,40.90
2018-06-04T08:47:36.919Z,43.40
2018-06-04T08:50:06.958Z,43.50
2018-06-04T08:52:36.380Z,44.10
2018-06-04T08:55:06.023Z,43.50
2018-06-04T08:57:35.557Z,42.40
2018-06-04T09:00:05.213Z,41.70
2018-06-04T09:02:34.905Z,41.70
2018-06-04T09:05:04.259Z,41.20
2018-06-04T09:07:33.597Z,41.00
2018-06-04T09:10:03.330Z,40.80
2018-06-04T09:12:32.997Z,41.50
2018-06-04T09:15:02.712Z,41.40
2018-06-04T09:17:32.020Z,41.50
2018-06-04T09:20:01.320Z,42.20
2018-06-04T09:22:30.694Z,44.00
2018-06-04T09:25:00.054Z,45.90
2018-06-04T09:27:29.384Z,44.90
2018-06-04T09:29:59.026Z,43.30
2018-06-04T09:32:28.826Z,44.00
2018-06-04T09:34:58.142Z,44.80
2018-06-04T09:37:27.484Z,39.70
2018-06-04T09:39:56.841Z,41.80
2018-06-04T09:42:26.183Z,44.70
2018-06-04T09:44:55.783Z,43.50
2018-06-04T09:47:25.615Z,41.70
2018-06-04T09:49:55.240Z,41.90
2018-06-04T09:52:24.777Z,43.50
2018-06-04T09:54:54.279Z,44.20
2018-06-04T09:57:23.843Z,43.80
2018-06-04T09:59:53.387Z,44.20
2018-06-04T10:02:23.218Z,45.20
2018-06-04T10:04:52.811Z,45.30
2018-06-04T10:07:22.754Z,45.30
2018-06-04T10:09:52.235Z,45.00
2018-06-04T10:12:21.833Z,44.80
2018-06-04T10:14:52.161Z,44.70
2018-06-04T10:17:21.974Z,44.40
2018-06-04T10:19:51.484Z,45.50
2018-06-04T10:22:20.792Z,43.70
2018-06-04T10:24:50.397Z,46.70
2018-06-04T10:27:19.767Z,45.60
2018-06-04T10:29:49.195Z,46.50
2018-06-04T10:32:18.489Z,47.50
2018-06-04T10:34:47.818Z,49.60
2018-06-04T10:37:17.456Z,47.60
2018-06-04T10:39:46.801Z,46.90
2018-06-04T10:42:16.166Z,47.20
2018-06-04T10:44:45.540Z,48.00
2018-06-04T10:47:15.480Z,47.80
2018-06-04T10:49:44.839Z,47.80
2018-06-04T10:52:14.521Z,48.40
2018-06-04T10:54:43.988Z,49.30
2018-06-04T10:57:13.493Z,48.70
2018-06-04T10:59:42.794Z,48.50
2018-06-04T11:02:11.797Z,48.30
2018-06-04T11:04:41.296Z,48.10
2018-06-04T11:07:11.015Z,48.20
2018-06-04T11:09:40.341Z,47.50
2018-06-04T11:12:09.806Z,47.00
2018-06-04T11:14:39.256Z,46.00
2018-06-04T11:17:08.713Z,47.30
2018-06-04T11:19:38.621Z,48.00
2018-06-04T11:22:07.711Z,48.60
2018-06-04T11:24:37.250Z,49.70
2018-06-04T11:27:07.219Z,49.80
2018-06-04T11:29:37.218Z,48.80
2018-06-04T11:32:07.226Z,48.80
2018-06-04T11:34:36.764Z,48.60
2018-06-04T11:37:06.369Z,49.20
2018-06-04T11:39:35.957Z,49.10
2018-06-04T11:42:05.689Z,48.80
2018-06-04T11:44:35.515Z,48.40
2018-06-04T11:47:05.631Z,49.00
2018-06-04T11:49:35.028Z,47.80
2018-06-04T11:54:33.415Z,47.50
2018-06-04T11:57:03.072Z,47.30
2018-06-04T11:59:32.751Z,47.40
2018-06-04T12:02:02.156Z,46.70
2018-06-04T12:04:31.793Z,47.30
2018-06-04T12:07:01.111Z,46.80
2018-06-04T12:09:30.518Z,47.40
2018-06-04T12:12:00.213Z,47.10
2018-06-04T12:14:29.558Z,49.30
2018-06-04T12:16:58.871Z,49.40
2018-06-04T12:19:28.553Z,48.30
2018-06-04T12:21:58.233Z,49.30
2018-06-04T12:24:27.538Z,49.70
2018-06-04T12:26:57.085Z,49.60
2018-06-04T12:29:26.770Z,49.10
2018-06-04T12:31:56.104Z,49.60
2018-06-04T12:34:25.518Z,49.90
2018-06-04T12:36:55.224Z,50.10
2018-06-04T12:39:24.967Z,50.00
2018-06-04T12:41:54.732Z,50.80
2018-06-04T12:44:24.173Z,51.40
2018-06-04T12:46:53.915Z,51.50
2018-06-04T12:49:23.465Z,51.60
2018-06-04T12:51:53.353Z,50.90
2018-06-04T12:54:23.025Z,48.50
2018-06-04T12:56:52.841Z,49.00
2018-06-04T12:59:22.676Z,50.60
2018-06-04T13:01:52.246Z,52.40
2018-06-04T13:04:21.724Z,51.50
2018-06-04T13:06:51.188Z,51.40
2018-06-04T13:09:20.634Z,51.20
2018-06-04T13:11:50.170Z,50.90
2018-06-04T13:14:20.032Z,51.10
2018-06-04T13:16:49.783Z,52.00
2018-06-04T13:19:19.132Z,52.70
2018-06-04T13:21:48.868Z,51.80
2018-06-04T13:24:18.250Z,51.60
2018-06-04T13:26:47.573Z,51.30
2018-06-04T13:29:16.938Z,50.70
2018-06-04T13:31:46.313Z,50.30
2018-06-04T13:34:15.653Z,49.50
2018-06-04T13:36:45.350Z,50.10
2018-06-04T13:39:15.066Z,50.30
2018-06-04T13:41:44.766Z,49.80
2018-06-04T13:44:14.530Z,50.00
2018-06-04T13:46:43.849Z,50.40
2018-06-04T13:49:13.189Z,49.70
2018-06-04T13:51:42.537Z,50.00
2018-06-04T13:54:12.840Z,51.20
2018-06-04T13:56:42.233Z,50.20
2018-06-04T13:59:10.996Z,49.70
2018-06-04T14:01:40.691Z,49.30
2018-06-04T14:04:10.165Z,50.70
2018-06-04T14:06:39.672Z,50.10
2018-06-04T14:09:09.367Z,49.40
2018-06-04T14:11:38.884Z,49.50
2018-06-04T14:14:07.927Z,48.90
2018-06-04T14:16:37.573Z,50.00
2018-06-04T14:19:07.194Z,50.60
2018-06-04T14:21:36.798Z,51.40
2018-06-04T14:24:06.234Z,51.60
2018-06-04T14:26:35.115Z,51.60
2018-06-04T14:29:04.605Z,52.00
2018-06-04T14:31:33.813Z,52.00
2018-06-04T14:34:03.321Z,51.60
2018-06-04T14:36:32.163Z,52.10
2018-06-04T14:39:01.559Z,52.10
2018-06-04T14:41:30.559Z,52.00
2018-06-04T14:43:59.365Z,52.30
2018-06-04T14:46:28.118Z,51.80
2018-06-04T14:48:57.795Z,52.10
2018-06-04T14:51:27.469Z,52.10
2018-06-04T14:53:56.284Z,52.20
2018-06-04T14:56:25.030Z,51.80
2018-06-04T14:58:53.935Z,51.20
2018-06-04T15:01:23.883Z,51.40
2018-06-04T15:03:52.739Z,51.60
2018-06-04T15:06:22.177Z,52.00
2018-06-04T15:08:51.484Z,52.10
2018-06-04T15:11:20.914Z,52.40
2018-06-04T15:13:50.304Z,51.60
2018-06-04T15:16:19.670Z,52.20
2018-06-04T15:18:49.328Z,52.30
2018-06-04T15:21:18.875Z,52.40
2018-06-04T15:23:48.447Z,52.00
2018-06-04T15:26:18.028Z,52.40
2018-06-04T15:28:47.492Z,52.50
2018-06-04T15:31:17.018Z,52.60
2018-06-04T15:33:46.489Z,52.10
2018-06-04T15:36:15.919Z,52.30
2018-06-04T15:38:45.806Z,52.30
2018-06-04T15:41:15.743Z,52.80
2018-06-04T15:43:45.453Z,52.70
2018-06-04T15:46:15.471Z,53.00
2018-06-04T15:48:45.186Z,53.20
2018-06-04T15:51:14.147Z,52.90
2018-06-04T15:53:42.925Z,52.80
2018-06-04T15:56:12.264Z,53.50
2018-06-04T15:58:41.877Z,53.10
2018-06-04T16:01:11.239Z,53.40
2018-06-04T16:03:40.566Z,53.40
2018-06-04T16:06:09.692Z,53.70
2018-06-04T16:08:39.465Z,52.80
2018-06-04T16:11:08.876Z,53.50
2018-06-04T16:13:37.708Z,53.70
2018-06-04T16:16:07.647Z,54.10
2018-06-04T16:18:36.416Z,53.50
2018-06-04T16:21:06.142Z,54.20
2018-06-04T16:23:35.220Z,54.40
2018-06-04T16:26:04.570Z,54.70
2018-06-04T16:28:33.974Z,55.10
2018-06-04T16:31:02.802Z,55.10
2018-06-04T16:33:32.267Z,55.10
2018-06-04T16:36:01.301Z,56.00
2018-06-04T16:40:59.199Z,58.10
2018-06-04T16:43:28.343Z,57.50
2018-06-04T16:45:58.151Z,55.50
2018-06-04T16:48:27.068Z,55.80
2018-06-04T16:50:56.447Z,55.60
2018-06-04T16:53:25.596Z,56.30
2018-06-04T16:55:54.509Z,55.70
2018-06-04T16:58:24.114Z,56.20
2018-06-04T17:00:53.029Z,57.00
2018-06-04T17:03:21.895Z,55.50
2018-06-04T17:05:51.455Z,55.60
2018-06-04T17:08:20.260Z,56.00
2018-06-04T17:10:49.262Z,56.30
2018-06-04T17:13:18.320Z,56.80
2018-06-04T17:15:47.456Z,57.20
2018-06-04T17:18:16.664Z,57.60
2018-06-04T17:20:45.471Z,56.90
2018-06-04T17:23:14.611Z,56.60
2018-06-04T17:25:44.975Z,56.50
2018-06-04T17:28:13.721Z,56.40
2018-06-04T17:30:42.554Z,56.50
2018-06-04T17:33:11.674Z,57.00
2018-06-04T17:35:41.234Z,57.30
2018-06-04T17:38:10.241Z,56.60
2018-06-04T17:40:39.200Z,56.10
2018-06-04T17:43:08.284Z,56.50
2018-06-04T17:45:37.221Z,56.20
2018-06-04T17:48:06.638Z,55.70
2018-06-04T17:50:36.213Z,56.00
2018-06-04T17:53:05.117Z,56.90
2018-06-04T17:55:34.433Z,55.80
2018-06-04T17:58:03.591Z,56.00
2018-06-04T18:00:32.399Z,56.10
2018-06-04T18:03:01.590Z,56.20
2018-06-04T18:07:59.546Z,57.10
2018-06-04T18:10:28.316Z,56.80
2018-06-04T18:12:58.538Z,55.40
2018-06-04T18:15:27.304Z,56.20
2018-06-04T18:17:56.734Z,56.00
2018-06-04T18:20:25.513Z,56.70
2018-06-04T18:22:54.343Z,56.70
2018-06-04T18:25:23.178Z,57.60
2018-06-04T18:27:52.132Z,56.70
2018-06-04T18:30:20.941Z,57.30
2018-06-04T18:32:50.005Z,57.20
2018-06-04T18:35:19.305Z,57.40
2018-06-04T18:37:48.355Z,57.60
2018-06-04T18:40:17.421Z,57.40
2018-06-04T18:42:46.408Z,57.60
2018-06-04T18:45:15.436Z,58.10
2018-06-04T18:47:44.331Z,57.90
2018-06-04T18:50:13.223Z,58.30
2018-06-04T18:52:42.423Z,58.20
2018-06-04T18:55:11.227Z,58.50
2018-06-04T18:57:40.079Z,58.60
2018-06-04T19:00:09.287Z,58.70
2018-06-04T19:02:38.496Z,58.70
2018-06-04T19:05:07.457Z,58.50
2018-06-04T19:07:36.267Z,59.70
2018-06-04T19:10:05.112Z,59.20
2018-06-04T19:12:33.939Z,59.20
2018-06-04T19:15:03.111Z,59.50
2018-06-04T19:17:32.013Z,59.40
2018-06-04T19:20:01.213Z,59.90
2018-06-04T19:22:30.180Z,60.00
2018-06-04T19:24:59.138Z,60.10
2018-06-04T19:27:28.211Z,60.30
2018-06-04T19:29:57.437Z,60.70
2018-06-04T19:32:26.646Z,60.70
2018-06-04T19:34:56.079Z,61.50
2018-06-04T19:37:25.445Z,61.50
2018-06-04T19:39:55.568Z,61.60
2018-06-04T19:42:25.236Z,62.20
2018-06-04T19:44:54.474Z,62.40
2018-06-04T19:47:23.585Z,62.40
2018-06-04T19:49:52.591Z,62.70
2018-06-04T19:52:21.465Z,63.70
2018-06-04T19:54:50.437Z,64.30
2018-06-04T19:57:19.677Z,65.50
2018-06-04T19:59:48.536Z,66.70
2018-06-04T20:02:17.759Z,68.10
2018-06-04T20:04:46.667Z,69.40
2018-06-04T20:07:15.476Z,69.70
2018-06-04T20:09:44.380Z,70.10
2018-06-04T20:12:13.234Z,70.80
2018-06-04T20:14:42.112Z,71.60
2018-06-04T20:17:11.252Z,71.80
2018-06-04T20:19:40.552Z,72.00
2018-06-04T20:22:09.404Z,72.30
2018-06-04T20:24:38.381Z,72.00
2018-06-04T20:27:08.121Z,72.20
2018-06-04T20:29:37.509Z,72.70
2018-06-04T20:32:07.031Z,73.70
2018-06-04T20:34:36.214Z,74.40
2018-06-04T20:37:05.295Z,75.00
2018-06-04T20:39:34.369Z,75.60
2018-06-04T20:42:03.940Z,75.40
2018-06-04T20:44:33.037Z,75.80
2018-06-04T20:47:01.978Z,76.20
2018-06-04T20:49:31.302Z,76.40
2018-06-04T20:52:00.407Z,76.70
2018-06-04T20:54:30.103Z,77.20
2018-06-04T20:56:58.994Z,76.50
2018-06-04T20:59:27.857Z,76.00
2018-06-04T21:01:57.103Z,77.00
2018-06-04T21:04:26.288Z,76.70
2018-06-04T21:06:55.441Z,77.10
2018-06-04T21:09:24.286Z,77.10
2018-06-04T21:11:53.106Z,77.40
2018-06-04T21:14:22.364Z,77.80
2018-06-04T21:16:51.548Z,78.10
2018-06-04T21:19:20.438Z,78.60
2018-06-04T21:21:49.372Z,78.00
2018-06-04T21:24:18.414Z,78.80
2018-06-04T21:26:47.372Z,78.90
2018-06-04T21:29:16.921Z,78.90
2018-06-04T21:31:46.024Z,79.00
2018-06-04T21:34:15.169Z,78.50
2018-06-04T21:36:44.272Z,79.70
2018-06-04T21:39:13.259Z,79.50
2018-06-04T21:41:42.524Z,79.80
2018-06-04T21:44:11.633Z,79.90
2018-06-04T21:46:40.506Z,79.60
2018-06-04T21:49:14.242Z,79.00
2018-06-04T21:51:43.216Z,79.20
2018-06-04T21:54:12.458Z,79.30
2018-06-04T21:56:41.208Z,78.80
2018-06-04T21:59:10.420Z,78.40
2018-06-04T22:01:39.239Z,78.60
2018-06-04T22:04:08.374Z,78.30
2018-06-04T22:06:37.137Z,78.60
2018-06-04T22:09:07.983Z,79.10
2018-06-04T22:11:36.755Z,79.20
2018-06-04T22:14:05.583Z,80.20
2018-06-04T22:16:34.353Z,80.30
2018-06-04T22:19:03.642Z,80.10
2018-06-04T22:21:35.040Z,79.90
2018-06-04T22:24:04.211Z,80.40
2018-06-04T22:26:33.321Z,80.50
2018-06-04T22:29:02.809Z,80.90
2018-06-04T22:31:31.565Z,81.30
2018-06-04T22:34:00.359Z,80.80
2018-06-04T22:36:29.162Z,82.00
2018-06-04T22:38:58.356Z,80.80
2018-06-04T22:41:27.189Z,80.40
2018-06-04T22:43:57.134Z,81.10
2018-06-04T22:46:26.009Z,80.60
2018-06-04T22:48:55.011Z,81.30
2018-06-04T22:51:23.945Z,80.50
2018-06-04T22:53:52.819Z,79.90
2018-06-04T22:56:21.932Z,81.20
2018-06-04T22:58:50.785Z,80.80
2018-06-04T23:01:19.509Z,80.60
2018-06-04T23:03:48.609Z,80.80
2018-06-04T23:06:17.380Z,79.60
2018-06-04T23:08:46.251Z,80.20
2018-06-04T23:11:15.267Z,80.00
2018-06-04T23:13:44.022Z,80.40
2018-06-04T23:16:12.779Z,80.50
2018-06-04T23:18:41.587Z,80.20
2018-06-04T23:21:10.683Z,80.20
2018-06-04T23:23:39.478Z,79.00
2018-06-04T23:26:08.260Z,79.00
2018-06-04T23:28:37.196Z,78.40
2018-06-04T23:31:06.091Z,79.50
2018-06-04T23:33:35.027Z,80.20
2018-06-04T23:36:04.022Z,79.50
2018-06-04T23:38:33.336Z,80.00
2018-06-04T23:41:02.209Z,79.90
2018-06-04T23:43:31.056Z,80.00
2018-06-04T23:45:59.876Z,79.60
2018-06-04T23:48:28.986Z,79.80
2018-06-04T23:50:57.802Z,79.30
2018-06-04T23:53:26.562Z,79.70
2018-06-04T23:55:55.325Z,79.70
2018-06-04T23:58:24.108Z,79.50
